Vernon Springs, Iowa
Current Conditions -  °F | °C
As of 8:15 PM on Saturday 22 Nov 2014 (Local Time) from KFKA Reporting Station
Haze Haze  
Wind Chill: 33°   Ceiling: 400
Heat Index: 40°   Visibility: 3mi
Dew Point: 40°   Wind: 12mph
Humidity: 99%   Direction: 190°S
Pressure: 29.64"   Gusts: NA
Location:  43.363°N, 92.1685°W
Report Text: KFKA 230215Z AUTO 19010KT 3SM BR OVC004 05/04 A2964 RMK AO2 T00460044
Loading
Personal Weather Stations






























Interactive Weather Map New forecast layout! Learn more

10-Day Weather Forecast

Advertisements
Track Severe Weather on mobile